Terminal Aerodrome Forecast
Issued by NWS

Home | Current Version | Previous Version | Text Only | Print | Product List | Glossary On
Versions: 1 2 3 4 5 6 7 8 9 10 11 12 13 14 15 16
000
FTUS46 KPDT 262300
TAFALW
TAF
KALW 262320Z 2700/2724 21010KT P6SM SCT200
     FM270900 18007KT P6SM BKN080 OVC120
     FM271200 18010KT 5SM -RASN BR OVC050
     FM272100 21012KT 5SM -RA OVC050=

USA.gov is the U.S. government's official web portal to all federal, state and local government web resources and services.